Flugplatz Königsdorf (UL)

Hier findest Du alle Informationen zum Flugplatz Königsdorf (UL).

Informationen für Piloten zum Flugplatz Königsdorf

Hier findest Du alle relevanten Informationen, die Du als Pilot benötigst, um Königsdorf anzufliegen.

Flugplatz: Königsdorf ICAO-Code: UL Flugplatz
Frequenz Turm: 118.275 Mhz GAFOR Gebiet: 74
Frequenz Ground: 118.275 Mhz Mogas: nein
Platzrunde: N 2800 ft Landegebühr: -
Platzhöhe: Sunrise: 03:18 Uhr UTC
Pisten: 10/28 - 500 m x 10 m, Sunset: 19:04 Uhr UTC

Mitglieder, die in Königsdorf fliegen

Flugwetter am Flugplatz Königsdorf

Die METAR Information stammen aus EDMO (31.18 km entfernt).

METAR Code:
2024/05/29 04:20
EDMO 290420Z AUTO 18003KT 9999 // SCT180/// 09/07 Q1018

Flugschulen am Flugplatz Königsdorf

Am Flugplatz Königsdorf gibt es leider keine Flugschule.

Benachbarte Flugplätze und Flugschulen

Es gibt 12 weitere Flugplätze in einem Umkreis von 50 km um den Flugplatz Königsdorf.

Jetzt anmelden

Passwort vergessen

Umfrage Archiv

Wie häufig haltet Ihr die Halbkreisflugregel ein?

Eher häufig!
35.5 %
Immer!
30.9 %
Hin und wieder!
16.8 %
Nie!
9.4 %
Eher selten!
7.4 %
Stimmen: 256 | Diskussion
Anzeige: Roland Aircraft
Statistik Alle Mitglieder

Aktuell sind 16 Besucher online, davon 1 Mitglied und 15 Gäste.


Mitglieder online:
ronnski 

Anzeige: EasyVFR